createdAt,value
2023-04-23T00:01:05.741Z,15.07
2023-04-23T00:03:36.666Z,15.03
2023-04-23T00:06:07.962Z,14.98
2023-04-23T00:08:35.314Z,15.04
2023-04-23T00:11:02.188Z,14.89
2023-04-23T00:13:28.883Z,14.91
2023-04-23T00:15:55.796Z,14.91
2023-04-23T00:18:22.340Z,14.87
2023-04-23T00:20:48.796Z,14.86
2023-04-23T00:23:15.580Z,14.77
2023-04-23T00:25:42.069Z,14.73
2023-04-23T00:28:11.626Z,14.68
2023-04-23T00:30:38.161Z,14.59
2023-04-23T00:33:04.993Z,14.56
2023-04-23T00:35:31.649Z,14.45
2023-04-23T00:37:58.364Z,14.49
2023-04-23T00:40:25.185Z,14.48
2023-04-23T00:42:53.879Z,14.39
2023-04-23T00:45:20.762Z,14.27
2023-04-23T00:47:47.374Z,14.23
2023-04-23T00:50:15.970Z,14.16
2023-04-23T00:52:42.584Z,14.12
2023-04-23T00:55:09.226Z,14.10
2023-04-23T00:57:39.107Z,14.06
2023-04-23T01:00:07.175Z,13.99
2023-04-23T01:02:34.919Z,14.00
2023-04-23T01:05:02.027Z,13.90
2023-04-23T01:07:28.778Z,13.76
2023-04-23T01:09:55.499Z,13.60
2023-04-23T01:12:22.393Z,13.57
2023-04-23T01:14:49.069Z,13.47
2023-04-23T01:17:15.811Z,13.50
2023-04-23T01:19:42.694Z,13.39
2023-04-23T01:22:13.057Z,13.40
2023-04-23T01:24:40.087Z,13.35
2023-04-23T01:27:07.425Z,13.38
2023-04-23T01:29:34.600Z,13.23
2023-04-23T01:32:01.806Z,13.27
2023-04-23T01:34:30.187Z,13.19
2023-04-23T01:36:57.671Z,13.15
2023-04-23T01:39:24.355Z,13.24
2023-04-23T01:41:51.473Z,13.17
2023-04-23T01:44:18.084Z,13.02
2023-04-23T01:46:44.777Z,13.01
2023-04-23T01:49:11.952Z,13.04
2023-04-23T01:51:38.448Z,12.95
2023-04-23T01:54:05.094Z,12.98
2023-04-23T01:56:33.584Z,12.94
2023-04-23T01:59:00.205Z,13.08
2023-04-23T02:01:26.817Z,13.05
2023-04-23T02:03:54.548Z,12.95
2023-04-23T02:06:21.317Z,13.01
2023-04-23T02:08:47.802Z,12.98
2023-04-23T02:11:14.298Z,13.04
2023-04-23T02:13:40.927Z,12.94
2023-04-23T02:16:07.775Z,12.92
2023-04-23T02:18:34.550Z,12.91
2023-04-23T02:21:02.200Z,12.95
2023-04-23T02:23:28.863Z,12.87
2023-04-23T02:25:55.749Z,12.88
2023-04-23T02:28:22.258Z,12.88
2023-04-23T02:30:48.816Z,12.89
2023-04-23T02:33:15.642Z,12.90
2023-04-23T02:35:42.128Z,12.95
2023-04-23T02:38:08.593Z,13.03
2023-04-23T02:40:35.035Z,13.07
2023-04-23T02:43:01.951Z,13.08
2023-04-23T02:45:28.913Z,12.98
2023-04-23T02:47:55.530Z,12.89
2023-04-23T02:50:22.083Z,12.82
2023-04-23T02:52:49.907Z,12.83
2023-04-23T02:55:16.918Z,12.78
2023-04-23T02:57:43.499Z,12.80
2023-04-23T03:00:12.403Z,12.81
2023-04-23T03:02:42.870Z,12.68
2023-04-23T03:05:09.763Z,12.77
2023-04-23T03:07:37.513Z,12.77
2023-04-23T03:10:04.342Z,12.76
2023-04-23T03:12:30.982Z,12.31
2023-04-23T03:14:57.530Z,12.67
2023-04-23T03:17:24.014Z,12.73
2023-04-23T03:19:50.496Z,12.73
2023-04-23T03:22:17.108Z,12.68
2023-04-23T03:24:43.899Z,12.73
2023-04-23T03:27:14.142Z,12.82
2023-04-23T03:29:41.426Z,12.75
2023-04-23T03:32:09.541Z,12.70
2023-04-23T03:34:36.012Z,12.66
2023-04-23T03:37:02.493Z,12.60
2023-04-23T03:39:28.985Z,12.49
2023-04-23T03:41:56.111Z,12.49
2023-04-23T03:44:22.514Z,12.52
2023-04-23T03:46:48.963Z,12.50
2023-04-23T03:49:15.897Z,12.48
2023-04-23T03:51:42.334Z,12.55
2023-04-23T03:54:08.848Z,12.49
2023-04-23T03:56:35.433Z,12.38
2023-04-23T03:59:02.100Z,12.32
2023-04-23T04:01:28.762Z,12.33
2023-04-23T04:03:55.569Z,12.33
2023-04-23T04:06:22.199Z,12.35
2023-04-23T04:08:49.219Z,12.38
2023-04-23T04:11:16.093Z,12.37
2023-04-23T04:13:43.688Z,12.25
2023-04-23T04:16:11.015Z,12.33
2023-04-23T04:18:40.815Z,12.35
2023-04-23T04:21:07.638Z,12.42
2023-04-23T04:23:35.450Z,12.43
2023-04-23T04:26:03.024Z,12.41
2023-04-23T04:28:30.080Z,12.30
2023-04-23T04:30:58.108Z,12.26
2023-04-23T04:33:25.981Z,12.25
2023-04-23T04:35:55.833Z,12.33
2023-04-23T04:38:22.557Z,12.23
2023-04-23T04:40:49.211Z,12.30
2023-04-23T04:43:16.841Z,12.34
2023-04-23T04:45:44.951Z,12.13
2023-04-23T04:48:11.432Z,11.99
2023-04-23T04:50:37.973Z,12.01
2023-04-23T04:53:04.653Z,11.89
2023-04-23T04:55:31.721Z,11.77
2023-04-23T04:57:58.332Z,11.92
2023-04-23T05:00:29.803Z,11.77
2023-04-23T05:02:57.707Z,11.76
2023-04-23T05:05:25.418Z,11.71
2023-04-23T05:07:54.459Z,11.69
2023-04-23T05:10:24.853Z,11.70
2023-04-23T05:12:52.099Z,11.68
2023-04-23T05:15:18.655Z,11.60
2023-04-23T05:17:45.314Z,11.62
2023-04-23T05:20:11.837Z,11.56
2023-04-23T05:22:38.935Z,11.67
2023-04-23T05:25:06.550Z,11.68
2023-04-23T05:27:33.280Z,11.60
2023-04-23T05:30:00.504Z,11.60
2023-04-23T05:32:27.173Z,11.56
2023-04-23T05:34:53.775Z,11.48
2023-04-23T05:37:20.330Z,11.43
2023-04-23T05:39:47.127Z,11.49
2023-04-23T05:42:15.511Z,11.49
2023-04-23T05:44:42.338Z,11.37
2023-04-23T05:47:10.448Z,11.45
2023-04-23T05:49:37.081Z,11.37
2023-04-23T05:52:03.554Z,11.37
2023-04-23T05:54:30.172Z,11.30
2023-04-23T05:56:57.035Z,11.28
2023-04-23T05:59:23.499Z,11.24
2023-04-23T06:01:50.971Z,11.26
2023-04-23T06:04:18.146Z,11.28
2023-04-23T06:06:44.862Z,11.30
2023-04-23T06:09:11.496Z,11.36
2023-04-23T06:11:38.400Z,11.46
2023-04-23T06:14:05.475Z,11.45
2023-04-23T06:16:32.142Z,11.47
2023-04-23T06:18:58.878Z,11.40
2023-04-23T06:21:26.079Z,11.47
2023-04-23T06:23:52.658Z,11.62
2023-04-23T06:26:19.059Z,11.58
2023-04-23T06:28:46.573Z,11.60
2023-04-23T06:31:13.341Z,11.66
2023-04-23T06:33:39.922Z,11.77
2023-04-23T06:36:08.343Z,11.99
2023-04-23T06:38:34.966Z,12.07
2023-04-23T06:41:01.596Z,12.04
2023-04-23T06:43:28.052Z,12.06
2023-04-23T06:45:54.566Z,12.32
2023-04-23T06:48:22.332Z,12.54
2023-04-23T06:50:49.398Z,13.37
2023-04-23T06:53:16.122Z,12.98
2023-04-23T06:55:42.638Z,14.18
2023-04-23T06:58:09.287Z,14.01
2023-04-23T07:00:36.247Z,14.19
2023-04-23T07:03:03.324Z,14.64
2023-04-23T07:05:30.100Z,14.46
2023-04-23T07:07:56.531Z,13.88
2023-04-23T07:10:23.084Z,15.00
2023-04-23T07:12:49.692Z,15.25
2023-04-23T07:15:16.146Z,15.65
2023-04-23T07:17:42.614Z,16.56
2023-04-23T07:20:09.565Z,15.95
2023-04-23T07:22:36.050Z,17.33
2023-04-23T07:25:02.925Z,17.59
2023-04-23T07:27:29.701Z,17.56
2023-04-23T07:29:56.275Z,17.86
2023-04-23T07:32:26.264Z,18.31
2023-04-23T07:34:52.778Z,17.88
2023-04-23T07:37:19.460Z,18.34
2023-04-23T07:39:46.359Z,19.11
2023-04-23T07:42:13.113Z,18.58
2023-04-23T07:44:39.565Z,18.38
2023-04-23T07:47:06.175Z,17.44
2023-04-23T07:49:32.694Z,18.71
2023-04-23T07:51:59.468Z,18.55
2023-04-23T07:54:26.501Z,19.17
2023-04-23T07:56:53.004Z,18.34
2023-04-23T07:59:19.493Z,19.55
2023-04-23T08:01:46.022Z,19.55
2023-04-23T08:04:12.850Z,19.21
2023-04-23T08:06:39.974Z,20.00
2023-04-23T08:09:06.619Z,19.10
2023-04-23T08:11:33.552Z,20.21
2023-04-23T08:14:01.755Z,20.55
2023-04-23T08:16:29.872Z,19.14
2023-04-23T08:19:05.252Z,18.68
2023-04-23T08:21:32.915Z,18.74
2023-04-23T08:23:59.731Z,20.35
2023-04-23T08:26:26.349Z,19.96
2023-04-23T08:28:52.780Z,18.54
2023-04-23T08:31:26.539Z,18.52
2023-04-23T08:33:54.315Z,19.23
2023-04-23T08:36:21.195Z,18.46
2023-04-23T08:38:47.629Z,18.88
2023-04-23T08:41:15.467Z,18.87
2023-04-23T08:43:48.181Z,18.91
2023-04-23T08:46:16.281Z,19.21
2023-04-23T08:48:44.894Z,19.67
2023-04-23T08:51:13.490Z,20.59
2023-04-23T08:53:43.316Z,18.85
2023-04-23T08:56:10.771Z,18.86
2023-04-23T08:58:37.593Z,20.40
2023-04-23T09:01:04.212Z,19.13
2023-04-23T09:03:31.300Z,19.71
2023-04-23T09:05:57.805Z,20.29
2023-04-23T09:08:24.320Z,19.74
2023-04-23T09:10:52.119Z,21.33
2023-04-23T09:13:18.671Z,19.91
2023-04-23T09:15:45.412Z,18.68
2023-04-23T09:18:11.874Z,19.77
2023-04-23T09:20:38.471Z,19.69
2023-04-23T09:23:09.204Z,19.31
2023-04-23T09:25:36.846Z,18.81
2023-04-23T09:28:07.637Z,20.87
2023-04-23T09:30:45.404Z,20.55
2023-04-23T09:33:12.829Z,21.72
2023-04-23T09:35:40.812Z,22.58
2023-04-23T09:38:08.185Z,21.74
2023-04-23T09:40:34.999Z,22.30
2023-04-23T09:43:03.508Z,20.93
2023-04-23T09:45:30.269Z,20.99
2023-04-23T09:47:58.418Z,19.31
2023-04-23T09:50:36.997Z,21.67
2023-04-23T09:53:04.689Z,21.53
2023-04-23T09:55:35.550Z,24.30
2023-04-23T09:58:06.101Z,23.97
2023-04-23T10:00:34.153Z,20.77
2023-04-23T10:03:01.408Z,18.95
2023-04-23T10:05:34.254Z,19.16
2023-04-23T10:08:07.980Z,20.46
2023-04-23T10:10:43.156Z,18.88
2023-04-23T10:13:20.130Z,21.77
2023-04-23T10:15:47.781Z,20.70
2023-04-23T10:18:18.349Z,20.70
2023-04-23T10:20:45.084Z,19.76
2023-04-23T10:23:11.842Z,18.72
2023-04-23T10:25:39.359Z,18.42
2023-04-23T10:28:07.784Z,17.92
2023-04-23T10:30:35.701Z,18.01
2023-04-23T10:33:02.835Z,17.62
2023-04-23T10:35:29.937Z,19.07
2023-04-23T10:37:56.523Z,19.27
2023-04-23T10:40:29.840Z,19.30
2023-04-23T10:42:56.284Z,21.33
2023-04-23T10:45:25.235Z,22.11
2023-04-23T10:47:53.575Z,21.46
2023-04-23T10:50:22.583Z,20.87
2023-04-23T10:52:53.653Z,22.07
2023-04-23T10:55:24.677Z,21.48
2023-04-23T10:58:02.261Z,20.98
2023-04-23T11:00:41.606Z,20.89
2023-04-23T11:03:27.464Z,22.68
2023-04-23T11:05:54.621Z,20.57
2023-04-23T11:08:21.091Z,22.23
2023-04-23T11:10:58.396Z,22.12
2023-04-23T11:13:26.324Z,20.86
2023-04-23T11:16:11.627Z,21.60
2023-04-23T11:18:57.615Z,19.43
2023-04-23T11:21:44.354Z,20.65
2023-04-23T11:24:11.020Z,21.26
2023-04-23T11:26:38.205Z,22.08
2023-04-23T11:29:06.548Z,22.51
2023-04-23T11:31:33.277Z,23.54
2023-04-23T11:34:00.167Z,22.24
2023-04-23T11:36:27.868Z,21.79
2023-04-23T11:38:56.625Z,22.74
2023-04-23T11:41:23.368Z,24.32
2023-04-23T11:43:49.977Z,21.72
2023-04-23T11:46:16.812Z,22.53
2023-04-23T11:48:43.431Z,22.12
2023-04-23T11:51:09.963Z,24.11
2023-04-23T11:53:36.596Z,24.44
2023-04-23T11:56:04.248Z,23.36
2023-04-23T11:58:31.142Z,22.57
2023-04-23T12:00:59.501Z,22.36
2023-04-23T12:03:27.463Z,24.13
2023-04-23T12:05:56.456Z,24.95
2023-04-23T12:08:22.904Z,23.00
2023-04-23T12:10:53.376Z,25.88
2023-04-23T12:13:21.814Z,23.43
2023-04-23T12:15:50.277Z,23.31
2023-04-23T12:18:17.351Z,22.66
2023-04-23T12:20:44.024Z,25.27
2023-04-23T12:23:10.880Z,22.37
2023-04-23T12:25:37.560Z,22.49
2023-04-23T12:28:07.465Z,21.99
2023-04-23T12:30:34.732Z,21.89
2023-04-23T12:33:06.755Z,21.77
2023-04-23T12:35:40.797Z,21.17
2023-04-23T12:38:07.491Z,20.43
2023-04-23T12:40:34.544Z,19.80
2023-04-23T12:43:04.184Z,20.09
2023-04-23T12:45:36.836Z,19.44
2023-04-23T12:48:03.507Z,19.48
2023-04-23T12:50:30.221Z,19.27
2023-04-23T12:52:56.667Z,20.48
2023-04-23T12:58:14.252Z,20.67
2023-04-23T13:00:40.887Z,21.50
2023-04-23T13:03:07.994Z,20.66
2023-04-23T13:05:34.588Z,21.77
2023-04-23T13:08:01.640Z,21.65
2023-04-23T13:10:32.796Z,21.91
2023-04-23T13:12:59.382Z,21.24
2023-04-23T13:15:27.135Z,21.13
2023-04-23T13:17:53.864Z,20.44
2023-04-23T13:20:20.403Z,19.89
2023-04-23T13:22:47.044Z,19.25
2023-04-23T13:25:13.548Z,19.52
2023-04-23T13:27:40.913Z,19.46
2023-04-23T13:30:07.903Z,19.32
2023-04-23T13:32:34.653Z,19.40
2023-04-23T13:35:03.245Z,19.68
2023-04-23T13:37:42.339Z,20.82
2023-04-23T13:40:09.049Z,20.84
2023-04-23T13:42:35.755Z,19.89
2023-04-23T13:45:05.144Z,19.39
2023-04-23T13:47:33.463Z,19.74
2023-04-23T13:50:00.969Z,20.06
2023-04-23T13:52:27.539Z,20.14
2023-04-23T13:54:54.706Z,19.68
2023-04-23T13:57:21.270Z,20.24
2023-04-23T13:59:47.763Z,20.52
2023-04-23T14:02:14.283Z,19.72
2023-04-23T14:04:55.770Z,20.08
2023-04-23T14:07:22.263Z,19.81
2023-04-23T14:09:52.965Z,19.85
2023-04-23T14:12:20.260Z,20.66
2023-04-23T14:14:46.928Z,19.95
2023-04-23T14:17:13.455Z,19.46
2023-04-23T14:19:46.322Z,19.26
2023-04-23T14:22:13.203Z,19.13
2023-04-23T14:24:44.554Z,19.31
2023-04-23T14:27:11.386Z,19.60
2023-04-23T14:30:02.299Z,19.16
2023-04-23T14:32:28.910Z,18.93
2023-04-23T14:34:56.009Z,18.71
2023-04-23T14:37:22.945Z,18.78
2023-04-23T14:39:49.470Z,19.07
2023-04-23T14:42:16.962Z,19.28
2023-04-23T14:44:43.452Z,18.95
2023-04-23T14:49:53.950Z,18.81
2023-04-23T14:52:20.751Z,18.93
2023-04-23T14:54:47.378Z,19.05
2023-04-23T14:57:13.779Z,19.06
2023-04-23T14:59:40.608Z,19.38
2023-04-23T15:02:08.491Z,19.18
2023-04-23T15:04:35.669Z,19.18
2023-04-23T15:07:02.234Z,19.47
2023-04-23T15:09:29.034Z,19.05
2023-04-23T15:11:55.636Z,19.02
2023-04-23T15:14:25.821Z,19.57
2023-04-23T15:16:55.428Z,19.42
2023-04-23T15:19:22.134Z,19.37
2023-04-23T15:21:48.656Z,19.50
2023-04-23T15:24:16.130Z,19.03
2023-04-23T15:26:43.452Z,19.05
2023-04-23T15:29:10.391Z,19.30
2023-04-23T15:31:37.723Z,19.43
2023-04-23T15:34:06.370Z,19.44
2023-04-23T15:36:37.593Z,19.43
2023-04-23T15:39:09.371Z,19.07
2023-04-23T15:41:39.546Z,18.71
2023-04-23T15:44:09.326Z,18.99
2023-04-23T15:46:37.523Z,18.89
2023-04-23T15:49:05.494Z,18.71
2023-04-23T15:51:33.173Z,18.85
2023-04-23T15:54:00.761Z,18.96
2023-04-23T15:56:27.389Z,18.89
2023-04-23T15:58:53.958Z,18.78
2023-04-23T16:01:20.843Z,18.82
2023-04-23T16:04:01.736Z,18.63
2023-04-23T16:06:33.982Z,18.62
2023-04-23T16:09:01.800Z,18.50
2023-04-23T16:11:28.647Z,18.39
2023-04-23T16:14:01.960Z,18.43
2023-04-23T16:16:28.890Z,18.42
2023-04-23T16:18:57.114Z,18.47
2023-04-23T16:21:24.584Z,18.40
2023-04-23T16:23:52.610Z,18.62
2023-04-23T16:26:20.029Z,18.33
2023-04-23T16:28:51.880Z,18.38
2023-04-23T16:31:27.780Z,18.37
2023-04-23T16:33:54.405Z,18.33
2023-04-23T16:36:22.138Z,18.33
2023-04-23T16:38:49.620Z,18.32
2023-04-23T16:41:18.654Z,18.25
2023-04-23T16:43:45.817Z,18.35
2023-04-23T16:46:15.701Z,18.37
2023-04-23T16:48:43.516Z,18.35
2023-04-23T16:51:10.666Z,18.24
2023-04-23T16:53:37.252Z,18.29
2023-04-23T16:56:04.282Z,18.24
2023-04-23T16:58:32.446Z,18.18
2023-04-23T17:00:58.914Z,18.15
2023-04-23T17:03:25.772Z,18.13
2023-04-23T17:05:55.638Z,18.09
2023-04-23T17:08:22.108Z,18.06
2023-04-23T17:10:48.625Z,18.00
2023-04-23T17:13:15.205Z,18.00
2023-04-23T17:15:43.647Z,17.99
2023-04-23T17:18:11.906Z,18.01
2023-04-23T17:20:39.203Z,17.86
2023-04-23T17:23:05.669Z,17.92
2023-04-23T17:25:32.127Z,17.87
2023-04-23T17:27:59.078Z,17.85
2023-04-23T17:30:25.592Z,17.86
2023-04-23T17:32:52.006Z,17.75
2023-04-23T17:35:18.468Z,17.76
2023-04-23T17:37:44.878Z,17.78
2023-04-23T17:40:11.650Z,17.70
2023-04-23T17:42:39.007Z,17.66
2023-04-23T17:45:06.107Z,17.66
2023-04-23T17:47:32.636Z,17.60
2023-04-23T17:49:59.135Z,17.59
2023-04-23T17:52:25.687Z,17.51
2023-04-23T17:54:52.436Z,17.50
2023-04-23T17:57:18.968Z,17.47
2023-04-23T17:59:45.874Z,17.44
2023-04-23T18:02:12.420Z,17.46
2023-04-23T18:04:39.087Z,17.37
2023-04-23T18:07:06.131Z,17.36
2023-04-23T18:09:33.061Z,17.30
2023-04-23T18:12:00.939Z,17.15
2023-04-23T18:14:28.392Z,17.18
2023-04-23T18:16:55.208Z,17.13
2023-04-23T18:19:22.072Z,17.01
2023-04-23T18:21:49.941Z,16.93
2023-04-23T18:24:18.782Z,16.84
2023-04-23T18:26:45.239Z,16.75
2023-04-23T18:29:11.691Z,16.74
2023-04-23T18:31:38.384Z,16.67
2023-04-23T18:34:09.200Z,16.58
2023-04-23T18:36:42.048Z,16.39
2023-04-23T18:39:09.027Z,16.40
2023-04-23T18:41:36.315Z,16.23
2023-04-23T18:44:03.815Z,16.21
2023-04-23T18:46:31.316Z,15.94
2023-04-23T18:48:58.778Z,15.82
2023-04-23T18:51:48.103Z,15.79
2023-04-23T18:54:15.370Z,15.74
2023-04-23T18:56:41.971Z,15.64
2023-04-23T18:59:08.606Z,15.37
2023-04-23T19:01:36.840Z,15.58
2023-04-23T19:04:03.591Z,15.26
2023-04-23T19:06:31.269Z,15.34
2023-04-23T19:08:58.153Z,15.23
2023-04-23T19:11:24.805Z,15.17
2023-04-23T19:13:51.376Z,15.27
2023-04-23T19:16:18.498Z,15.18
2023-04-23T19:18:45.212Z,15.17
2023-04-23T19:21:12.063Z,15.18
2023-04-23T19:23:38.537Z,14.96
2023-04-23T19:26:05.249Z,14.93
2023-04-23T19:28:32.042Z,14.99
2023-04-23T19:30:58.696Z,15.03
2023-04-23T19:33:25.136Z,15.04
2023-04-23T19:35:52.352Z,14.94
2023-04-23T19:38:18.940Z,14.95
2023-04-23T19:40:45.608Z,14.98
2023-04-23T19:43:12.867Z,15.01
2023-04-23T19:45:39.734Z,15.05
2023-04-23T19:48:10.287Z,15.01
2023-04-23T19:50:39.815Z,14.84
2023-04-23T19:53:07.609Z,14.56
2023-04-23T19:55:34.446Z,14.97
2023-04-23T19:58:01.146Z,15.39
2023-04-23T20:00:30.068Z,15.40
2023-04-23T20:02:58.232Z,15.30
2023-04-23T20:05:27.298Z,15.22
2023-04-23T20:07:54.785Z,15.17
2023-04-23T20:10:21.960Z,15.17
2023-04-23T20:12:48.845Z,15.15
2023-04-23T20:15:15.748Z,15.17
2023-04-23T20:17:46.323Z,15.07
2023-04-23T20:20:13.189Z,14.82
2023-04-23T20:22:39.638Z,14.83
2023-04-23T20:25:06.564Z,14.76
2023-04-23T20:27:33.650Z,14.38
2023-04-23T20:30:00.514Z,14.26
2023-04-23T20:32:26.945Z,14.12
2023-04-23T20:34:53.479Z,14.07
2023-04-23T20:37:21.909Z,14.00
2023-04-23T20:39:50.204Z,13.88
2023-04-23T20:42:16.843Z,13.85
2023-04-23T20:44:45.894Z,13.81
2023-04-23T20:47:13.241Z,13.79
2023-04-23T20:49:40.520Z,13.50
2023-04-23T20:52:10.208Z,13.41
2023-04-23T20:54:37.294Z,13.56
2023-04-23T20:57:04.322Z,13.51
2023-04-23T20:59:31.105Z,13.49
2023-04-23T21:01:57.840Z,13.44
2023-04-23T21:04:29.379Z,13.20
2023-04-23T21:06:56.327Z,13.17
2023-04-23T21:09:22.993Z,13.09
2023-04-23T21:11:53.734Z,12.94
2023-04-23T21:14:21.828Z,12.85
2023-04-23T21:16:49.845Z,12.85
2023-04-23T21:19:16.469Z,12.80
2023-04-23T21:21:43.361Z,12.80
2023-04-23T21:24:09.905Z,12.58
2023-04-23T21:26:36.691Z,12.65
2023-04-23T21:29:03.775Z,12.64
2023-04-23T21:31:38.988Z,12.65
2023-04-23T21:34:08.024Z,12.73
2023-04-23T21:36:34.843Z,12.71
2023-04-23T21:39:01.955Z,12.75
2023-04-23T21:41:28.776Z,12.66
2023-04-23T21:43:56.217Z,12.75
2023-04-23T21:46:25.461Z,12.78
2023-04-23T21:48:54.421Z,12.66
2023-04-23T21:51:23.804Z,12.78
2023-04-23T21:53:50.531Z,12.74
2023-04-23T21:56:17.601Z,12.78
2023-04-23T21:58:44.740Z,12.76
2023-04-23T22:01:11.304Z,12.78
2023-04-23T22:03:42.851Z,12.67
2023-04-23T22:06:09.875Z,12.71
2023-04-23T22:08:40.674Z,12.85
2023-04-23T22:11:08.698Z,12.70
2023-04-23T22:13:35.843Z,12.69
2023-04-23T22:18:29.444Z,12.65
2023-04-23T22:20:55.885Z,12.63
2023-04-23T22:23:22.452Z,12.81
2023-04-23T22:25:48.903Z,12.66
2023-04-23T22:28:15.820Z,12.80
2023-04-23T22:30:43.686Z,12.76
2023-04-23T22:33:11.613Z,12.74
2023-04-23T22:35:38.492Z,12.75
2023-04-23T22:38:05.309Z,12.72
2023-04-23T22:40:31.809Z,12.69
2023-04-23T22:42:58.711Z,12.80
2023-04-23T22:45:25.299Z,12.64
2023-04-23T22:47:55.800Z,12.71
2023-04-23T22:50:22.578Z,12.59
2023-04-23T22:52:49.155Z,12.57
2023-04-23T22:55:17.094Z,12.54
2023-04-23T22:57:43.718Z,12.56
2023-04-23T23:00:11.433Z,12.49
2023-04-23T23:02:38.236Z,12.44
2023-04-23T23:05:05.292Z,12.27
2023-04-23T23:07:31.754Z,12.55
2023-04-23T23:09:58.369Z,12.53
2023-04-23T23:12:27.962Z,12.59
2023-04-23T23:14:54.667Z,12.50
2023-04-23T23:17:21.231Z,12.52
2023-04-23T23:19:47.808Z,12.67
2023-04-23T23:22:14.338Z,12.48
2023-04-23T23:24:41.164Z,12.38
2023-04-23T23:27:07.944Z,12.45
2023-04-23T23:29:34.477Z,12.52
2023-04-23T23:32:01.150Z,12.43
2023-04-23T23:34:27.645Z,12.41
2023-04-23T23:36:54.317Z,12.52
2023-04-23T23:39:22.626Z,12.60
2023-04-23T23:41:50.655Z,12.55
2023-04-23T23:44:18.352Z,12.52
2023-04-23T23:46:44.855Z,12.51
2023-04-23T23:49:12.930Z,12.50
2023-04-23T23:51:40.891Z,12.48
2023-04-23T23:54:16.590Z,12.50
2023-04-23T23:56:43.121Z,12.48
2023-04-23T23:59:09.605Z,12.44
